Terminal Aerodrome Forecast
Issued by NWS

Home | Current Version | Previous Version | Text Only | Print | Product List | Glossary On
Versions: 1 2 3 4 5 6 7 8 9 10 11 12 13
000
FTUS41 KPBZ 280600 AAA
TAFAGC
TAF AMD
KAGC 280642Z 2807/2906 23006KT 4SM -RA OVC009
     FM280800 26006KT 4SM -RA OVC005
     FM281200 30007KT P6SM -SHRA OVC015
     FM281700 30006KT P6SM BKN025=

USA.gov is the U.S. government's official web portal to all federal, state and local government web resources and services.